Terminal Aerodrome Forecast
Issued by NWS

Current Version | Previous Version | Graphics & Text | Print | Product List | Glossary On
Versions: 1 2 3 4 5 6 7 8 9 10 11 12 13
000
FTUS41 KPBZ 011130
TAFHLG
TAF
KHLG 011130Z 0112/0212 33006KT P6SM BKN100
      TEMPO 0112/0114 1 1/2SM BR OVC004
     FM011700 01006KT P6SM BKN050
     FM020000 VRB03KT P6SM SKC=

USA.gov is the U.S. government's official web portal to all federal, state and local government web resources and services.